createdAt,value
2023-05-10T00:03:41.414Z,37.55
2023-05-10T00:08:43.372Z,37.64
2023-05-10T00:13:45.207Z,37.64
2023-05-10T00:18:47.058Z,38.03
2023-05-10T00:23:48.903Z,37.95
2023-05-10T00:28:50.737Z,38.17
2023-05-10T00:33:53.726Z,38.04
2023-05-10T00:38:55.658Z,38.30
2023-05-10T00:43:57.500Z,38.62
2023-05-10T00:48:59.563Z,38.56
2023-05-10T00:54:01.540Z,38.69
2023-05-10T00:59:03.497Z,38.99
2023-05-10T01:04:05.687Z,39.24
2023-05-10T01:09:07.965Z,38.89
2023-05-10T01:14:10.086Z,38.95
2023-05-10T01:19:29.170Z,39.04
2023-05-10T01:24:40.479Z,39.38
2023-05-10T01:30:17.434Z,39.39
2023-05-10T01:35:28.305Z,39.05
2023-05-10T01:40:36.663Z,39.22
2023-05-10T01:46:00.648Z,39.39
2023-05-10T01:51:03.559Z,39.61
2023-05-10T01:56:06.604Z,39.56
2023-05-10T02:01:10.504Z,39.83
2023-05-10T02:06:15.519Z,39.74
2023-05-10T02:11:19.927Z,39.84
2023-05-10T02:16:26.460Z,39.91
2023-05-10T02:21:30.741Z,40.14
2023-05-10T02:26:35.445Z,40.58
2023-05-10T02:31:39.944Z,40.72
2023-05-10T02:36:42.983Z,40.61
2023-05-10T02:41:47.572Z,40.75
2023-05-10T02:46:49.619Z,40.61
2023-05-10T02:52:01.427Z,40.78
2023-05-10T02:57:06.945Z,40.90
2023-05-10T03:02:09.582Z,41.26
2023-05-10T03:07:11.696Z,41.44
2023-05-10T03:12:43.197Z,41.57
2023-05-10T03:17:57.087Z,41.54
2023-05-10T03:23:06.409Z,41.59
2023-05-10T03:28:09.566Z,41.86
2023-05-10T03:33:11.941Z,41.72
2023-05-10T03:38:16.994Z,41.58
2023-05-10T03:43:18.912Z,41.85
2023-05-10T03:48:20.844Z,41.89
2023-05-10T03:53:24.154Z,42.41
2023-05-10T03:58:26.201Z,41.79
2023-05-10T04:03:28.180Z,42.07
2023-05-10T04:08:30.279Z,41.72
2023-05-10T04:13:32.622Z,42.01
2023-05-10T04:18:34.479Z,41.72
2023-05-10T04:23:36.290Z,42.19
2023-05-10T04:28:38.179Z,42.21
2023-05-10T04:33:40.047Z,42.32
2023-05-10T04:38:41.916Z,42.21
2023-05-10T04:43:43.733Z,42.24
2023-05-10T04:48:45.602Z,42.33
2023-05-10T04:54:01.403Z,42.34
2023-05-10T04:59:06.855Z,42.02
2023-05-10T05:04:08.725Z,42.00
2023-05-10T05:09:11.277Z,41.97
2023-05-10T05:14:13.078Z,42.01
2023-05-10T05:19:14.930Z,41.77
2023-05-10T05:24:16.752Z,41.48
2023-05-10T05:29:18.633Z,41.62
2023-05-10T05:34:21.605Z,41.14
2023-05-10T05:39:23.583Z,40.89
2023-05-10T05:44:25.439Z,40.94
2023-05-10T05:49:27.719Z,40.80
2023-05-10T05:54:30.014Z,40.78
2023-05-10T05:59:31.988Z,40.43
2023-05-10T06:04:34.017Z,40.28
2023-05-10T06:09:36.005Z,40.18
2023-05-10T06:14:37.861Z,40.07
2023-05-10T06:19:39.743Z,39.82
2023-05-10T06:24:41.676Z,39.61
2023-05-10T06:29:43.485Z,39.25
2023-05-10T06:34:45.755Z,39.25
2023-05-10T06:39:47.607Z,39.06
2023-05-10T06:44:49.405Z,38.60
2023-05-10T06:49:51.918Z,38.37
2023-05-10T06:54:54.024Z,38.20
2023-05-10T06:59:57.270Z,37.72
2023-05-10T07:05:01.659Z,37.66
2023-05-10T07:10:05.408Z,37.56
2023-05-10T07:15:08.353Z,37.24
2023-05-10T07:20:10.541Z,37.21
2023-05-10T07:25:13.278Z,36.77
2023-05-10T07:30:16.145Z,36.96
2023-05-10T07:35:18.350Z,36.60
2023-05-10T07:40:20.458Z,36.40
2023-05-10T07:45:22.691Z,36.43
2023-05-10T07:50:24.556Z,36.11
2023-05-10T07:55:26.724Z,36.11
2023-05-10T08:00:28.620Z,35.66
2023-05-10T08:05:30.481Z,35.54
2023-05-10T08:10:32.497Z,35.33
2023-05-10T08:15:35.568Z,35.21
2023-05-10T08:20:37.448Z,35.04
2023-05-10T08:25:39.341Z,35.12
2023-05-10T08:30:41.206Z,34.90
2023-05-10T08:35:43.050Z,34.53
2023-05-10T08:40:45.994Z,34.64
2023-05-10T08:45:50.738Z,34.50
2023-05-10T08:50:58.601Z,34.40
2023-05-10T08:56:02.449Z,34.14
2023-05-10T09:01:05.236Z,34.24
2023-05-10T09:06:08.034Z,33.93
2023-05-10T09:11:10.778Z,33.73
2023-05-10T09:16:21.090Z,33.82
2023-05-10T09:21:23.359Z,33.75
2023-05-10T09:26:25.422Z,33.64
2023-05-10T09:31:47.854Z,33.38
2023-05-10T09:36:57.426Z,33.43
2023-05-10T09:42:02.017Z,33.27
2023-05-10T09:47:04.769Z,33.25
2023-05-10T09:52:08.582Z,33.06
2023-05-10T09:57:21.921Z,33.16
2023-05-10T10:02:30.428Z,32.97
2023-05-10T10:07:33.016Z,33.14
2023-05-10T10:12:34.945Z,33.01
2023-05-10T10:17:39.414Z,33.29
2023-05-10T10:22:41.336Z,33.15
2023-05-10T10:27:52.207Z,32.97
2023-05-10T10:33:24.366Z,33.07
2023-05-10T10:39:00.314Z,33.10
2023-05-10T10:44:24.798Z,33.44
2023-05-10T10:49:27.266Z,33.32
2023-05-10T10:54:29.680Z,33.31
2023-05-10T10:59:31.484Z,33.12
2023-05-10T11:04:44.504Z,33.10
2023-05-10T11:09:48.356Z,33.12
2023-05-10T11:14:53.294Z,33.48
2023-05-10T11:20:11.546Z,33.16
2023-05-10T11:25:14.045Z,32.97
2023-05-10T11:30:16.372Z,32.87
2023-05-10T11:35:18.402Z,33.44
2023-05-10T11:40:22.319Z,33.42
2023-05-10T11:45:25.596Z,33.42
2023-05-10T11:50:28.104Z,32.92
2023-05-10T11:55:31.485Z,32.49
2023-05-10T12:00:33.831Z,32.50
2023-05-10T12:05:36.836Z,32.18
2023-05-10T12:10:38.627Z,32.18
2023-05-10T12:15:40.620Z,31.89
2023-05-10T12:20:42.603Z,32.15
2023-05-10T12:25:44.451Z,32.10
2023-05-10T12:30:46.563Z,31.95
2023-05-10T12:35:53.470Z,31.77
2023-05-10T12:40:55.472Z,31.46
2023-05-10T12:45:57.853Z,31.52
2023-05-10T12:50:59.691Z,31.43
2023-05-10T12:56:01.572Z,31.43
2023-05-10T13:01:04.166Z,31.36
2023-05-10T13:06:07.371Z,31.24
2023-05-10T13:11:09.297Z,31.15
2023-05-10T13:16:11.121Z,31.04
2023-05-10T13:21:13.153Z,31.00
2023-05-10T13:26:15.021Z,30.85
2023-05-10T13:31:17.002Z,31.10
2023-05-10T13:36:18.922Z,31.02
2023-05-10T13:41:21.303Z,30.93
2023-05-10T13:46:24.203Z,30.76
2023-05-10T13:51:26.546Z,30.61
2023-05-10T13:56:28.625Z,30.35
2023-05-10T14:01:30.595Z,30.61
2023-05-10T14:06:32.631Z,30.39
2023-05-10T14:11:34.627Z,30.65
2023-05-10T14:16:36.849Z,30.63
2023-05-10T14:21:39.202Z,30.58
2023-05-10T14:26:41.070Z,30.98
2023-05-10T14:31:43.038Z,30.50
2023-05-10T14:36:44.982Z,30.70
2023-05-10T14:41:48.187Z,30.73
2023-05-10T14:46:50.830Z,30.92
2023-05-10T14:51:53.208Z,30.99
2023-05-10T14:56:55.012Z,30.73
2023-05-10T15:01:56.872Z,31.01
2023-05-10T15:07:00.541Z,32.23
2023-05-10T15:12:02.429Z,33.73
2023-05-10T15:17:04.425Z,34.23
2023-05-10T15:22:06.736Z,34.78
2023-05-10T15:27:08.733Z,35.25
2023-05-10T15:32:10.609Z,35.70
2023-05-10T15:37:12.458Z,36.82
2023-05-10T15:42:14.260Z,37.05
2023-05-10T15:47:16.485Z,37.43
2023-05-10T15:52:19.329Z,37.54
2023-05-10T15:57:21.163Z,37.96
2023-05-10T16:02:23.505Z,38.50
2023-05-10T16:07:25.479Z,38.53
2023-05-10T16:12:27.296Z,38.88
2023-05-10T16:17:29.217Z,38.77
2023-05-10T16:22:31.149Z,38.76
2023-05-10T16:27:33.668Z,38.48
2023-05-10T16:32:35.943Z,38.20
2023-05-10T16:37:37.962Z,38.14
2023-05-10T16:42:39.790Z,38.26
2023-05-10T16:47:41.846Z,38.39
2023-05-10T16:52:44.177Z,38.16
2023-05-10T16:57:46.163Z,38.10
2023-05-10T17:02:48.734Z,38.55
2023-05-10T17:07:50.701Z,38.42
2023-05-10T17:12:53.756Z,38.08
2023-05-10T17:17:56.181Z,37.89
2023-05-10T17:22:58.232Z,38.32
2023-05-10T17:28:00.136Z,38.54
2023-05-10T17:33:02.326Z,38.71
2023-05-10T17:38:04.249Z,38.94
2023-05-10T17:43:06.083Z,39.10
2023-05-10T17:48:08.103Z,39.16
2023-05-10T17:53:10.284Z,39.14
2023-05-10T17:58:12.359Z,39.48
2023-05-10T18:03:14.268Z,39.50
2023-05-10T18:08:16.868Z,39.70
2023-05-10T18:13:19.089Z,40.28
2023-05-10T18:18:20.944Z,40.51
2023-05-10T18:23:23.684Z,40.77
2023-05-10T18:28:25.814Z,40.84
2023-05-10T18:33:27.734Z,41.09
2023-05-10T18:38:29.657Z,41.44
2023-05-10T18:43:31.585Z,41.47
2023-05-10T18:48:33.461Z,41.61
2023-05-10T18:53:35.404Z,41.67
2023-05-10T18:58:37.404Z,41.94
2023-05-10T19:03:39.252Z,41.91
2023-05-10T19:08:41.088Z,42.05
2023-05-10T19:13:43.013Z,42.15
2023-05-10T19:18:46.786Z,42.49
2023-05-10T19:23:49.313Z,42.63
2023-05-10T19:28:52.310Z,42.94
2023-05-10T19:33:54.289Z,43.45
2023-05-10T19:38:56.157Z,44.33
2023-05-10T19:43:58.168Z,45.19
2023-05-10T19:48:59.995Z,45.37
2023-05-10T19:54:02.186Z,45.18
2023-05-10T19:59:04.185Z,45.30
2023-05-10T20:04:06.192Z,45.36
2023-05-10T20:09:08.974Z,45.94
2023-05-10T20:14:11.127Z,46.38
2023-05-10T20:19:14.089Z,46.68
2023-05-10T20:24:16.081Z,46.74
2023-05-10T20:29:17.911Z,47.00
2023-05-10T20:34:19.759Z,47.73
2023-05-10T20:39:21.781Z,48.40
2023-05-10T20:44:23.575Z,48.20
2023-05-10T20:49:25.405Z,47.98
2023-05-10T20:54:27.331Z,47.57
2023-05-10T20:59:29.381Z,47.25
2023-05-10T21:04:32.033Z,47.28
2023-05-10T21:09:35.296Z,47.35
2023-05-10T21:14:37.354Z,47.47
2023-05-10T21:19:39.156Z,47.55
2023-05-10T21:24:41.005Z,48.13
2023-05-10T21:29:42.833Z,48.70
2023-05-10T21:34:44.748Z,49.75
2023-05-10T21:39:46.560Z,49.28
2023-05-10T21:44:48.434Z,49.59
2023-05-10T21:49:50.659Z,50.16
2023-05-10T21:54:52.496Z,50.29
2023-05-10T21:59:54.303Z,50.03
2023-05-10T22:04:56.366Z,49.72
2023-05-10T22:09:58.793Z,49.42
2023-05-10T22:15:10.223Z,49.43
2023-05-10T22:20:12.944Z,49.51
2023-05-10T22:25:14.918Z,49.24
2023-05-10T22:30:17.208Z,49.09
2023-05-10T22:35:19.573Z,49.27
2023-05-10T22:40:21.651Z,49.22
2023-05-10T22:45:23.766Z,49.14
2023-05-10T22:50:26.042Z,49.24
2023-05-10T22:55:27.868Z,49.31
2023-05-10T23:00:29.741Z,49.83
2023-05-10T23:05:31.570Z,49.77
2023-05-10T23:10:33.604Z,49.79
2023-05-10T23:15:40.197Z,49.77
2023-05-10T23:20:42.990Z,49.82
2023-05-10T23:25:44.852Z,49.88
2023-05-10T23:30:46.659Z,50.10
2023-05-10T23:35:48.538Z,50.16
2023-05-10T23:40:50.978Z,50.38
2023-05-10T23:45:57.151Z,50.51
2023-05-10T23:50:59.100Z,50.24
2023-05-10T23:56:00.983Z,50.10
